sensor_id;sensor_type;location;lat;lon;timestamp;P1;durP1;ratioP1;P2;durP2;ratioP2
68050;SDS011;54839;51.364;7.246;2023-04-03T00:00:55;10.47;;;9.30;;
68050;SDS011;54839;51.364;7.246;2023-04-03T00:03:22;11.37;;;8.80;;
68050;SDS011;54839;51.364;7.246;2023-04-03T00:05:47;11.23;;;9.73;;
68050;SDS011;54839;51.364;7.246;2023-04-03T00:08:13;12.53;;;10.80;;
68050;SDS011;54839;51.364;7.246;2023-04-03T00:10:39;9.67;;;8.67;;
68050;SDS011;54839;51.364;7.246;2023-04-03T00:13:05;9.83;;;8.83;;
68050;SDS011;54839;51.364;7.246;2023-04-03T00:15:32;11.00;;;9.93;;
68050;SDS011;54839;51.364;7.246;2023-04-03T00:17:58;13.23;;;11.10;;
68050;SDS011;54839;51.364;7.246;2023-04-03T00:20:23;14.13;;;9.60;;
68050;SDS011;54839;51.364;7.246;2023-04-03T00:22:49;11.00;;;8.70;;
68050;SDS011;54839;51.364;7.246;2023-04-03T00:25:15;13.70;;;9.00;;
68050;SDS011;54839;51.364;7.246;2023-04-03T00:27:40;11.10;;;10.10;;
68050;SDS011;54839;51.364;7.246;2023-04-03T00:30:07;11.50;;;9.60;;
68050;SDS011;54839;51.364;7.246;2023-04-03T00:32:41;12.17;;;10.07;;
68050;SDS011;54839;51.364;7.246;2023-04-03T00:35:07;9.73;;;8.90;;
68050;SDS011;54839;51.364;7.246;2023-04-03T00:37:33;8.83;;;8.03;;
68050;SDS011;54839;51.364;7.246;2023-04-03T00:39:58;10.93;;;9.57;;
68050;SDS011;54839;51.364;7.246;2023-04-03T00:42:24;12.83;;;9.73;;
68050;SDS011;54839;51.364;7.246;2023-04-03T00:47:21;15.23;;;12.37;;
68050;SDS011;54839;51.364;7.246;2023-04-03T00:49:48;12.33;;;10.03;;
68050;SDS011;54839;51.364;7.246;2023-04-03T00:52:16;11.37;;;10.27;;
68050;SDS011;54839;51.364;7.246;2023-04-03T00:54:44;14.83;;;11.27;;
68050;SDS011;54839;51.364;7.246;2023-04-03T00:57:12;10.57;;;9.30;;
68050;SDS011;54839;51.364;7.246;2023-04-03T00:59:39;11.40;;;9.70;;
68050;SDS011;54839;51.364;7.246;2023-04-03T01:02:09;12.80;;;9.67;;
68050;SDS011;54839;51.364;7.246;2023-04-03T01:04:39;10.33;;;8.10;;
68050;SDS011;54839;51.364;7.246;2023-04-03T01:07:08;9.10;;;8.20;;
68050;SDS011;54839;51.364;7.246;2023-04-03T01:09:35;12.00;;;8.93;;
68050;SDS011;54839;51.364;7.246;2023-04-03T01:12:15;10.10;;;9.07;;
68050;SDS011;54839;51.364;7.246;2023-04-03T01:14:50;12.00;;;9.03;;
68050;SDS011;54839;51.364;7.246;2023-04-03T01:25:30;10.63;;;8.60;;
68050;SDS011;54839;51.364;7.246;2023-04-03T01:27:56;9.80;;;8.80;;
68050;SDS011;54839;51.364;7.246;2023-04-03T01:30:24;8.70;;;7.80;;
68050;SDS011;54839;51.364;7.246;2023-04-03T01:32:55;10.87;;;8.77;;
68050;SDS011;54839;51.364;7.246;2023-04-03T01:35:21;9.97;;;9.07;;
68050;SDS011;54839;51.364;7.246;2023-04-03T01:37:46;9.50;;;8.53;;
68050;SDS011;54839;51.364;7.246;2023-04-03T01:40:12;9.63;;;8.70;;
68050;SDS011;54839;51.364;7.246;2023-04-03T01:42:37;9.70;;;8.70;;
68050;SDS011;54839;51.364;7.246;2023-04-03T01:45:03;14.43;;;9.37;;
68050;SDS011;54839;51.364;7.246;2023-04-03T01:47:29;9.40;;;8.57;;
68050;SDS011;54839;51.364;7.246;2023-04-03T01:49:54;16.40;;;10.00;;
68050;SDS011;54839;51.364;7.246;2023-04-03T01:52:20;11.77;;;9.20;;
68050;SDS011;54839;51.364;7.246;2023-04-03T01:54:46;13.43;;;9.47;;
68050;SDS011;54839;51.364;7.246;2023-04-03T01:57:11;10.90;;;9.47;;
68050;SDS011;54839;51.364;7.246;2023-04-03T01:59:38;13.60;;;9.53;;
68050;SDS011;54839;51.364;7.246;2023-04-03T02:02:04;11.63;;;9.20;;
68050;SDS011;54839;51.364;7.246;2023-04-03T02:04:29;11.87;;;10.73;;
68050;SDS011;54839;51.364;7.246;2023-04-03T02:06:55;12.10;;;8.90;;
68050;SDS011;54839;51.364;7.246;2023-04-03T02:09:20;9.90;;;8.90;;
68050;SDS011;54839;51.364;7.246;2023-04-03T02:11:46;13.83;;;9.33;;
68050;SDS011;54839;51.364;7.246;2023-04-03T02:14:11;12.10;;;9.17;;
68050;SDS011;54839;51.364;7.246;2023-04-03T02:16:37;12.50;;;10.40;;
68050;SDS011;54839;51.364;7.246;2023-04-03T02:19:03;14.23;;;10.43;;
68050;SDS011;54839;51.364;7.246;2023-04-03T02:21:28;11.30;;;9.80;;
68050;SDS011;54839;51.364;7.246;2023-04-03T02:23:54;10.60;;;9.33;;
68050;SDS011;54839;51.364;7.246;2023-04-03T02:26:19;17.50;;;10.70;;
68050;SDS011;54839;51.364;7.246;2023-04-03T02:28:45;11.10;;;9.90;;
68050;SDS011;54839;51.364;7.246;2023-04-03T02:31:11;9.60;;;8.70;;
68050;SDS011;54839;51.364;7.246;2023-04-03T02:33:37;10.97;;;9.67;;
68050;SDS011;54839;51.364;7.246;2023-04-03T02:36:04;11.43;;;10.10;;
68050;SDS011;54839;51.364;7.246;2023-04-03T02:38:30;9.57;;;8.40;;
68050;SDS011;54839;51.364;7.246;2023-04-03T02:41:00;11.90;;;9.60;;
68050;SDS011;54839;51.364;7.246;2023-04-03T02:43:26;11.70;;;9.20;;
68050;SDS011;54839;51.364;7.246;2023-04-03T02:45:52;11.03;;;10.03;;
68050;SDS011;54839;51.364;7.246;2023-04-03T02:48:17;9.93;;;9.03;;
68050;SDS011;54839;51.364;7.246;2023-04-03T02:50:42;12.50;;;10.83;;
68050;SDS011;54839;51.364;7.246;2023-04-03T02:53:08;11.10;;;9.70;;
68050;SDS011;54839;51.364;7.246;2023-04-03T02:55:34;17.80;;;9.90;;
68050;SDS011;54839;51.364;7.246;2023-04-03T02:57:59;11.83;;;9.33;;
68050;SDS011;54839;51.364;7.246;2023-04-03T03:00:25;11.67;;;9.60;;
68050;SDS011;54839;51.364;7.246;2023-04-03T03:02:50;10.40;;;9.00;;
68050;SDS011;54839;51.364;7.246;2023-04-03T03:05:16;10.83;;;8.70;;
68050;SDS011;54839;51.364;7.246;2023-04-03T03:07:41;9.87;;;8.87;;
68050;SDS011;54839;51.364;7.246;2023-04-03T03:10:07;10.27;;;8.90;;
68050;SDS011;54839;51.364;7.246;2023-04-03T03:12:33;14.70;;;9.43;;
68050;SDS011;54839;51.364;7.246;2023-04-03T03:14:58;12.20;;;9.67;;
68050;SDS011;54839;51.364;7.246;2023-04-03T03:17:24;11.70;;;8.50;;
68050;SDS011;54839;51.364;7.246;2023-04-03T03:19:50;15.97;;;8.90;;
68050;SDS011;54839;51.364;7.246;2023-04-03T03:22:16;14.13;;;8.40;;
68050;SDS011;54839;51.364;7.246;2023-04-03T03:24:41;8.93;;;7.37;;
68050;SDS011;54839;51.364;7.246;2023-04-03T03:27:07;9.83;;;7.80;;
68050;SDS011;54839;51.364;7.246;2023-04-03T03:29:32;13.97;;;7.97;;
68050;SDS011;54839;51.364;7.246;2023-04-03T03:31:58;9.33;;;7.70;;
68050;SDS011;54839;51.364;7.246;2023-04-03T03:34:23;10.63;;;6.80;;
68050;SDS011;54839;51.364;7.246;2023-04-03T03:36:49;9.13;;;6.50;;
68050;SDS011;54839;51.364;7.246;2023-04-03T03:39:15;6.67;;;5.90;;
68050;SDS011;54839;51.364;7.246;2023-04-03T03:41:40;9.43;;;7.20;;
68050;SDS011;54839;51.364;7.246;2023-04-03T03:44:06;11.27;;;6.80;;
68050;SDS011;54839;51.364;7.246;2023-04-03T03:46:32;8.30;;;5.70;;
68050;SDS011;54839;51.364;7.246;2023-04-03T03:48:57;7.90;;;5.97;;
68050;SDS011;54839;51.364;7.246;2023-04-03T03:51:23;9.23;;;5.70;;
68050;SDS011;54839;51.364;7.246;2023-04-03T03:53:48;8.63;;;5.20;;
68050;SDS011;54839;51.364;7.246;2023-04-03T03:56:14;11.80;;;6.07;;
68050;SDS011;54839;51.364;7.246;2023-04-03T03:58:40;6.67;;;5.50;;
68050;SDS011;54839;51.364;7.246;2023-04-03T04:01:06;9.87;;;5.23;;
68050;SDS011;54839;51.364;7.246;2023-04-03T04:03:32;11.30;;;6.20;;
68050;SDS011;54839;51.364;7.246;2023-04-03T04:05:57;13.37;;;5.90;;
68050;SDS011;54839;51.364;7.246;2023-04-03T04:08:23;9.17;;;6.07;;
68050;SDS011;54839;51.364;7.246;2023-04-03T04:10:49;6.80;;;5.20;;
68050;SDS011;54839;51.364;7.246;2023-04-03T04:13:14;6.60;;;4.80;;
68050;SDS011;54839;51.364;7.246;2023-04-03T04:15:40;7.80;;;5.07;;
68050;SDS011;54839;51.364;7.246;2023-04-03T04:18:06;6.70;;;4.43;;
68050;SDS011;54839;51.364;7.246;2023-04-03T04:20:32;6.40;;;4.83;;
68050;SDS011;54839;51.364;7.246;2023-04-03T04:22:57;7.40;;;4.50;;
68050;SDS011;54839;51.364;7.246;2023-04-03T04:25:23;6.27;;;5.20;;
68050;SDS011;54839;51.364;7.246;2023-04-03T04:27:48;7.90;;;4.87;;
68050;SDS011;54839;51.364;7.246;2023-04-03T04:30:14;5.40;;;4.33;;
68050;SDS011;54839;51.364;7.246;2023-04-03T04:32:40;6.00;;;4.53;;
68050;SDS011;54839;51.364;7.246;2023-04-03T04:35:05;7.03;;;4.80;;
68050;SDS011;54839;51.364;7.246;2023-04-03T04:37:31;6.97;;;4.30;;
68050;SDS011;54839;51.364;7.246;2023-04-03T04:39:57;5.83;;;3.87;;
68050;SDS011;54839;51.364;7.246;2023-04-03T04:42:22;9.40;;;5.60;;
68050;SDS011;54839;51.364;7.246;2023-04-03T04:44:48;7.53;;;4.80;;
68050;SDS011;54839;51.364;7.246;2023-04-03T04:47:13;10.17;;;5.67;;
68050;SDS011;54839;51.364;7.246;2023-04-03T04:49:39;6.10;;;5.50;;
68050;SDS011;54839;51.364;7.246;2023-04-03T04:52:05;8.60;;;5.30;;
68050;SDS011;54839;51.364;7.246;2023-04-03T04:54:31;8.87;;;5.30;;
68050;SDS011;54839;51.364;7.246;2023-04-03T04:56:56;12.03;;;6.53;;
68050;SDS011;54839;51.364;7.246;2023-04-03T04:59:22;13.30;;;6.17;;
68050;SDS011;54839;51.364;7.246;2023-04-03T05:01:48;9.70;;;5.63;;
68050;SDS011;54839;51.364;7.246;2023-04-03T05:04:13;10.33;;;5.10;;
68050;SDS011;54839;51.364;7.246;2023-04-03T05:06:40;10.67;;;4.93;;
68050;SDS011;54839;51.364;7.246;2023-04-03T05:09:05;4.03;;;3.63;;
68050;SDS011;54839;51.364;7.246;2023-04-03T05:11:31;8.10;;;4.67;;
68050;SDS011;54839;51.364;7.246;2023-04-03T05:13:57;8.67;;;4.90;;
68050;SDS011;54839;51.364;7.246;2023-04-03T05:16:23;7.40;;;5.40;;
68050;SDS011;54839;51.364;7.246;2023-04-03T05:18:48;6.53;;;5.33;;
68050;SDS011;54839;51.364;7.246;2023-04-03T05:21:14;20.20;;;6.10;;
68050;SDS011;54839;51.364;7.246;2023-04-03T05:23:39;8.57;;;4.83;;
68050;SDS011;54839;51.364;7.246;2023-04-03T05:26:05;10.90;;;4.67;;
68050;SDS011;54839;51.364;7.246;2023-04-03T05:28:31;13.00;;;5.80;;
68050;SDS011;54839;51.364;7.246;2023-04-03T05:30:57;7.90;;;5.00;;
68050;SDS011;54839;51.364;7.246;2023-04-03T05:33:23;6.20;;;3.93;;
68050;SDS011;54839;51.364;7.246;2023-04-03T05:35:49;7.33;;;3.93;;
68050;SDS011;54839;51.364;7.246;2023-04-03T05:38:14;10.50;;;4.63;;
68050;SDS011;54839;51.364;7.246;2023-04-03T05:40:40;10.83;;;4.57;;
68050;SDS011;54839;51.364;7.246;2023-04-03T05:43:06;13.00;;;5.77;;
68050;SDS011;54839;51.364;7.246;2023-04-03T05:45:31;11.60;;;4.60;;
68050;SDS011;54839;51.364;7.246;2023-04-03T05:47:57;13.23;;;4.73;;
68050;SDS011;54839;51.364;7.246;2023-04-03T05:50:22;7.87;;;4.57;;
68050;SDS011;54839;51.364;7.246;2023-04-03T05:52:49;11.93;;;4.57;;
68050;SDS011;54839;51.364;7.246;2023-04-03T05:55:17;8.40;;;5.17;;
68050;SDS011;54839;51.364;7.246;2023-04-03T05:57:42;12.83;;;6.70;;
68050;SDS011;54839;51.364;7.246;2023-04-03T06:00:08;5.43;;;4.80;;
68050;SDS011;54839;51.364;7.246;2023-04-03T06:02:37;5.90;;;4.73;;
68050;SDS011;54839;51.364;7.246;2023-04-03T06:05:03;8.10;;;3.70;;
68050;SDS011;54839;51.364;7.246;2023-04-03T06:07:29;11.20;;;4.57;;
68050;SDS011;54839;51.364;7.246;2023-04-03T06:09:55;8.60;;;4.17;;
68050;SDS011;54839;51.364;7.246;2023-04-03T06:12:21;11.23;;;5.37;;
68050;SDS011;54839;51.364;7.246;2023-04-03T06:14:47;4.40;;;3.07;;
68050;SDS011;54839;51.364;7.246;2023-04-03T06:17:16;5.57;;;2.70;;
68050;SDS011;54839;51.364;7.246;2023-04-03T06:19:43;3.23;;;2.60;;
68050;SDS011;54839;51.364;7.246;2023-04-03T06:22:10;7.20;;;2.83;;
68050;SDS011;54839;51.364;7.246;2023-04-03T06:24:36;5.77;;;3.47;;
68050;SDS011;54839;51.364;7.246;2023-04-03T06:27:03;9.40;;;3.10;;
68050;SDS011;54839;51.364;7.246;2023-04-03T06:29:28;11.93;;;6.30;;
68050;SDS011;54839;51.364;7.246;2023-04-03T06:31:54;17.23;;;6.60;;
68050;SDS011;54839;51.364;7.246;2023-04-03T06:34:20;13.83;;;5.20;;
68050;SDS011;54839;51.364;7.246;2023-04-03T06:36:46;7.70;;;4.00;;
68050;SDS011;54839;51.364;7.246;2023-04-03T06:39:16;10.70;;;5.30;;
68050;SDS011;54839;51.364;7.246;2023-04-03T06:41:45;11.17;;;4.40;;
68050;SDS011;54839;51.364;7.246;2023-04-03T06:44:10;8.83;;;4.90;;
68050;SDS011;54839;51.364;7.246;2023-04-03T06:46:38;13.43;;;6.10;;
68050;SDS011;54839;51.364;7.246;2023-04-03T06:49:04;8.63;;;3.90;;
68050;SDS011;54839;51.364;7.246;2023-04-03T06:51:32;15.17;;;7.17;;
68050;SDS011;54839;51.364;7.246;2023-04-03T06:53:58;10.00;;;4.83;;
68050;SDS011;54839;51.364;7.246;2023-04-03T06:56:24;7.50;;;3.63;;
68050;SDS011;54839;51.364;7.246;2023-04-03T06:58:51;6.10;;;2.80;;
68050;SDS011;54839;51.364;7.246;2023-04-03T07:01:19;10.80;;;3.00;;
68050;SDS011;54839;51.364;7.246;2023-04-03T07:03:45;8.90;;;3.83;;
68050;SDS011;54839;51.364;7.246;2023-04-03T07:06:12;7.33;;;3.57;;
68050;SDS011;54839;51.364;7.246;2023-04-03T07:08:39;7.60;;;3.00;;
68050;SDS011;54839;51.364;7.246;2023-04-03T07:11:05;9.73;;;4.40;;
68050;SDS011;54839;51.364;7.246;2023-04-03T07:13:31;5.90;;;3.67;;
68050;SDS011;54839;51.364;7.246;2023-04-03T07:15:57;7.13;;;3.70;;
68050;SDS011;54839;51.364;7.246;2023-04-03T07:18:23;7.90;;;3.80;;
68050;SDS011;54839;51.364;7.246;2023-04-03T07:20:49;11.83;;;3.60;;
68050;SDS011;54839;51.364;7.246;2023-04-03T07:23:15;7.73;;;3.00;;
68050;SDS011;54839;51.364;7.246;2023-04-03T07:25:48;8.80;;;4.03;;
68050;SDS011;54839;51.364;7.246;2023-04-03T07:28:15;4.73;;;2.33;;
68050;SDS011;54839;51.364;7.246;2023-04-03T07:33:12;8.30;;;3.20;;
68050;SDS011;54839;51.364;7.246;2023-04-03T07:35:38;2.33;;;1.80;;
68050;SDS011;54839;51.364;7.246;2023-04-03T07:38:04;6.60;;;2.60;;
68050;SDS011;54839;51.364;7.246;2023-04-03T07:40:30;9.67;;;2.40;;
68050;SDS011;54839;51.364;7.246;2023-04-03T07:42:56;7.40;;;2.13;;
68050;SDS011;54839;51.364;7.246;2023-04-03T07:45:22;6.77;;;3.00;;
68050;SDS011;54839;51.364;7.246;2023-04-03T07:47:48;3.80;;;2.20;;
68050;SDS011;54839;51.364;7.246;2023-04-03T07:50:14;6.30;;;2.47;;
68050;SDS011;54839;51.364;7.246;2023-04-03T07:52:40;3.50;;;2.40;;
68050;SDS011;54839;51.364;7.246;2023-04-03T07:55:06;2.30;;;1.87;;
68050;SDS011;54839;51.364;7.246;2023-04-03T07:57:32;4.67;;;1.83;;
68050;SDS011;54839;51.364;7.246;2023-04-03T07:59:58;17.03;;;3.57;;
68050;SDS011;54839;51.364;7.246;2023-04-03T08:02:23;3.93;;;2.50;;
68050;SDS011;54839;51.364;7.246;2023-04-03T08:04:49;8.43;;;2.80;;
68050;SDS011;54839;51.364;7.246;2023-04-03T08:07:15;3.70;;;2.27;;
68050;SDS011;54839;51.364;7.246;2023-04-03T08:09:40;4.53;;;2.30;;
68050;SDS011;54839;51.364;7.246;2023-04-03T08:12:06;6.37;;;2.03;;
68050;SDS011;54839;51.364;7.246;2023-04-03T08:14:33;4.07;;;2.20;;
68050;SDS011;54839;51.364;7.246;2023-04-03T08:17:01;3.87;;;1.80;;
68050;SDS011;54839;51.364;7.246;2023-04-03T08:19:30;3.20;;;2.10;;
68050;SDS011;54839;51.364;7.246;2023-04-03T08:21:56;6.23;;;1.83;;
68050;SDS011;54839;51.364;7.246;2023-04-03T08:24:23;4.00;;;2.10;;
68050;SDS011;54839;51.364;7.246;2023-04-03T08:26:49;2.50;;;1.27;;
68050;SDS011;54839;51.364;7.246;2023-04-03T08:29:15;3.10;;;2.00;;
68050;SDS011;54839;51.364;7.246;2023-04-03T08:31:40;8.00;;;1.60;;
68050;SDS011;54839;51.364;7.246;2023-04-03T08:34:07;3.00;;;1.70;;
68050;SDS011;54839;51.364;7.246;2023-04-03T08:36:33;5.03;;;2.77;;
68050;SDS011;54839;51.364;7.246;2023-04-03T08:38:59;3.80;;;2.50;;
68050;SDS011;54839;51.364;7.246;2023-04-03T08:46:52;3.00;;;2.30;;
68050;SDS011;54839;51.364;7.246;2023-04-03T08:49:31;5.13;;;1.87;;
68050;SDS011;54839;51.364;7.246;2023-04-03T08:52:19;5.10;;;2.73;;
68050;SDS011;54839;51.364;7.246;2023-04-03T08:54:51;4.00;;;1.87;;
68050;SDS011;54839;51.364;7.246;2023-04-03T08:57:24;6.40;;;2.50;;
68050;SDS011;54839;51.364;7.246;2023-04-03T08:59:55;4.97;;;1.60;;
68050;SDS011;54839;51.364;7.246;2023-04-03T09:04:59;6.50;;;2.20;;
68050;SDS011;54839;51.364;7.246;2023-04-03T09:07:59;11.93;;;2.53;;
68050;SDS011;54839;51.364;7.246;2023-04-03T09:10:27;4.43;;;2.23;;
68050;SDS011;54839;51.364;7.246;2023-04-03T09:13:06;5.33;;;2.50;;
68050;SDS011;54839;51.364;7.246;2023-04-03T09:15:38;6.70;;;2.10;;
68050;SDS011;54839;51.364;7.246;2023-04-03T09:18:21;2.43;;;1.63;;
68050;SDS011;54839;51.364;7.246;2023-04-03T09:20:56;3.90;;;2.20;;
68050;SDS011;54839;51.364;7.246;2023-04-03T09:23:51;7.80;;;2.50;;
68050;SDS011;54839;51.364;7.246;2023-04-03T09:26:24;4.70;;;2.07;;
68050;SDS011;54839;51.364;7.246;2023-04-03T09:28:55;7.73;;;2.00;;
68050;SDS011;54839;51.364;7.246;2023-04-03T09:31:44;5.47;;;2.57;;
68050;SDS011;54839;51.364;7.246;2023-04-03T09:36:50;4.57;;;1.50;;
68050;SDS011;54839;51.364;7.246;2023-04-03T09:39:19;4.13;;;1.80;;
68050;SDS011;54839;51.364;7.246;2023-04-03T09:42:00;6.53;;;1.80;;
68050;SDS011;54839;51.364;7.246;2023-04-03T09:44:29;3.77;;;2.20;;
68050;SDS011;54839;51.364;7.246;2023-04-03T09:46:57;5.93;;;2.13;;
68050;SDS011;54839;51.364;7.246;2023-04-03T09:49:23;3.40;;;1.70;;
68050;SDS011;54839;51.364;7.246;2023-04-03T09:51:49;5.80;;;2.17;;
68050;SDS011;54839;51.364;7.246;2023-04-03T09:54:24;3.73;;;1.73;;
68050;SDS011;54839;51.364;7.246;2023-04-03T09:57:09;3.10;;;1.63;;
68050;SDS011;54839;51.364;7.246;2023-04-03T10:00:19;5.17;;;1.97;;
68050;SDS011;54839;51.364;7.246;2023-04-03T10:02:39;1.57;;;1.40;;
68050;SDS011;54839;51.364;7.246;2023-04-03T10:05:27;4.70;;;2.17;;
68050;SDS011;54839;51.364;7.246;2023-04-03T10:08:06;6.83;;;2.17;;
68050;SDS011;54839;51.364;7.246;2023-04-03T10:10:41;3.43;;;1.73;;
68050;SDS011;54839;51.364;7.246;2023-04-03T10:13:15;3.00;;;1.87;;
68050;SDS011;54839;51.364;7.246;2023-04-03T10:15:48;4.30;;;1.77;;
68050;SDS011;54839;51.364;7.246;2023-04-03T10:18:41;2.87;;;1.50;;
68050;SDS011;54839;51.364;7.246;2023-04-03T10:21:15;4.37;;;1.80;;
68050;SDS011;54839;51.364;7.246;2023-04-03T10:23:56;2.70;;;1.30;;
68050;SDS011;54839;51.364;7.246;2023-04-03T10:29:27;4.23;;;1.80;;
68050;SDS011;54839;51.364;7.246;2023-04-03T10:32:13;1.50;;;1.17;;
68050;SDS011;54839;51.364;7.246;2023-04-03T10:34:47;3.47;;;2.23;;
68050;SDS011;54839;51.364;7.246;2023-04-03T10:39:59;6.30;;;2.57;;
68050;SDS011;54839;51.364;7.246;2023-04-03T10:47:40;3.03;;;1.50;;
68050;SDS011;54839;51.364;7.246;2023-04-03T10:53:08;3.40;;;1.70;;
68050;SDS011;54839;51.364;7.246;2023-04-03T10:55:46;0.77;;;0.77;;
68050;SDS011;54839;51.364;7.246;2023-04-03T10:58:21;3.13;;;0.93;;
68050;SDS011;54839;51.364;7.246;2023-04-03T11:00:53;4.70;;;1.50;;
68050;SDS011;54839;51.364;7.246;2023-04-03T11:03:26;5.70;;;1.93;;
68050;SDS011;54839;51.364;7.246;2023-04-03T11:05:52;3.40;;;1.73;;
68050;SDS011;54839;51.364;7.246;2023-04-03T11:08:33;5.33;;;1.33;;
68050;SDS011;54839;51.364;7.246;2023-04-03T11:11:06;2.77;;;1.60;;
68050;SDS011;54839;51.364;7.246;2023-04-03T11:13:37;7.30;;;1.30;;
68050;SDS011;54839;51.364;7.246;2023-04-03T11:16:07;2.20;;;1.33;;
68050;SDS011;54839;51.364;7.246;2023-04-03T11:18:43;3.83;;;2.20;;
68050;SDS011;54839;51.364;7.246;2023-04-03T11:21:16;2.13;;;1.57;;
68050;SDS011;54839;51.364;7.246;2023-04-03T11:23:47;4.93;;;4.10;;
68050;SDS011;54839;51.364;7.246;2023-04-03T11:26:13;9.03;;;4.23;;
68050;SDS011;54839;51.364;7.246;2023-04-03T11:28:41;8.07;;;3.57;;
68050;SDS011;54839;51.364;7.246;2023-04-03T11:34:08;1.07;;;0.47;;
68050;SDS011;54839;51.364;7.246;2023-04-03T11:36:47;1.60;;;1.10;;
68050;SDS011;54839;51.364;7.246;2023-04-03T11:41:53;2.13;;;1.00;;
68050;SDS011;54839;51.364;7.246;2023-04-03T11:44:35;2.63;;;1.13;;
68050;SDS011;54839;51.364;7.246;2023-04-03T11:47:08;3.63;;;2.23;;
68050;SDS011;54839;51.364;7.246;2023-04-03T12:16:05;3.53;;;1.30;;
68050;SDS011;54839;51.364;7.246;2023-04-03T12:18:40;2.10;;;1.23;;
68050;SDS011;54839;51.364;7.246;2023-04-03T12:21:21;2.33;;;1.63;;
68050;SDS011;54839;51.364;7.246;2023-04-03T12:29:33;4.20;;;1.37;;
68050;SDS011;54839;51.364;7.246;2023-04-03T12:34:43;6.03;;;2.27;;
68050;SDS011;54839;51.364;7.246;2023-04-03T12:40:07;4.00;;;1.47;;
68050;SDS011;54839;51.364;7.246;2023-04-03T12:45:26;4.30;;;1.70;;
68050;SDS011;54839;51.364;7.246;2023-04-03T12:47:53;3.87;;;1.63;;
68050;SDS011;54839;51.364;7.246;2023-04-03T12:50:21;1.87;;;1.40;;
68050;SDS011;54839;51.364;7.246;2023-04-03T12:52:57;6.03;;;2.03;;
68050;SDS011;54839;51.364;7.246;2023-04-03T12:55:26;7.43;;;1.90;;
68050;SDS011;54839;51.364;7.246;2023-04-03T12:57:52;5.47;;;1.80;;
68050;SDS011;54839;51.364;7.246;2023-04-03T13:00:20;3.87;;;1.20;;
68050;SDS011;54839;51.364;7.246;2023-04-03T13:02:46;4.77;;;1.60;;
68050;SDS011;54839;51.364;7.246;2023-04-03T13:05:16;2.30;;;1.07;;
68050;SDS011;54839;51.364;7.246;2023-04-03T13:07:44;1.57;;;1.20;;
68050;SDS011;54839;51.364;7.246;2023-04-03T13:10:16;4.00;;;1.17;;
68050;SDS011;54839;51.364;7.246;2023-04-03T13:15:21;1.77;;;1.17;;
68050;SDS011;54839;51.364;7.246;2023-04-03T13:18:05;3.33;;;1.60;;
68050;SDS011;54839;51.364;7.246;2023-04-03T13:20:45;3.63;;;1.40;;
68050;SDS011;54839;51.364;7.246;2023-04-03T13:23:14;5.23;;;1.97;;
68050;SDS011;54839;51.364;7.246;2023-04-03T13:25:45;2.53;;;1.50;;
68050;SDS011;54839;51.364;7.246;2023-04-03T13:28:13;3.90;;;1.60;;
68050;SDS011;54839;51.364;7.246;2023-04-03T13:31:03;3.53;;;1.43;;
68050;SDS011;54839;51.364;7.246;2023-04-03T13:33:59;2.70;;;1.90;;
68050;SDS011;54839;51.364;7.246;2023-04-03T13:36:41;0.97;;;0.80;;
68050;SDS011;54839;51.364;7.246;2023-04-03T13:41:40;1.93;;;0.90;;
68050;SDS011;54839;51.364;7.246;2023-04-03T13:44:41;2.10;;;1.30;;
68050;SDS011;54839;51.364;7.246;2023-04-03T13:49:44;4.50;;;1.30;;
68050;SDS011;54839;51.364;7.246;2023-04-03T13:52:24;2.70;;;1.47;;
68050;SDS011;54839;51.364;7.246;2023-04-03T13:55:01;2.70;;;1.97;;
68050;SDS011;54839;51.364;7.246;2023-04-03T14:03:21;2.70;;;1.70;;
68050;SDS011;54839;51.364;7.246;2023-04-03T14:05:53;8.80;;;1.80;;
68050;SDS011;54839;51.364;7.246;2023-04-03T14:08:20;4.67;;;2.00;;
68050;SDS011;54839;51.364;7.246;2023-04-03T14:10:46;3.03;;;1.47;;
68050;SDS011;54839;51.364;7.246;2023-04-03T14:13:16;2.80;;;1.80;;
68050;SDS011;54839;51.364;7.246;2023-04-03T14:15:44;5.10;;;2.23;;
68050;SDS011;54839;51.364;7.246;2023-04-03T14:18:14;5.73;;;2.50;;
68050;SDS011;54839;51.364;7.246;2023-04-03T14:20:41;4.63;;;2.30;;
68050;SDS011;54839;51.364;7.246;2023-04-03T14:23:08;3.73;;;2.10;;
68050;SDS011;54839;51.364;7.246;2023-04-03T14:25:34;2.50;;;1.37;;
68050;SDS011;54839;51.364;7.246;2023-04-03T14:28:00;2.40;;;1.67;;
68050;SDS011;54839;51.364;7.246;2023-04-03T14:30:36;3.43;;;1.70;;
68050;SDS011;54839;51.364;7.246;2023-04-03T14:33:02;5.50;;;2.20;;
68050;SDS011;54839;51.364;7.246;2023-04-03T14:35:28;3.00;;;1.50;;
68050;SDS011;54839;51.364;7.246;2023-04-03T14:37:54;3.53;;;1.40;;
68050;SDS011;54839;51.364;7.246;2023-04-03T14:40:22;3.40;;;2.30;;
68050;SDS011;54839;51.364;7.246;2023-04-03T14:42:50;2.03;;;1.10;;
68050;SDS011;54839;51.364;7.246;2023-04-03T14:45:17;2.90;;;1.20;;
68050;SDS011;54839;51.364;7.246;2023-04-03T14:47:54;3.73;;;1.70;;
68050;SDS011;54839;51.364;7.246;2023-04-03T14:50:22;2.80;;;1.60;;
68050;SDS011;54839;51.364;7.246;2023-04-03T14:52:51;2.47;;;1.60;;
68050;SDS011;54839;51.364;7.246;2023-04-03T14:55:20;4.73;;;1.73;;
68050;SDS011;54839;51.364;7.246;2023-04-03T14:57:47;5.90;;;2.10;;
68050;SDS011;54839;51.364;7.246;2023-04-03T15:00:17;5.13;;;1.40;;
68050;SDS011;54839;51.364;7.246;2023-04-03T15:02:44;2.17;;;1.30;;
68050;SDS011;54839;51.364;7.246;2023-04-03T15:05:11;2.90;;;1.23;;
68050;SDS011;54839;51.364;7.246;2023-04-03T15:07:38;3.37;;;1.60;;
68050;SDS011;54839;51.364;7.246;2023-04-03T15:10:14;2.83;;;1.07;;
68050;SDS011;54839;51.364;7.246;2023-04-03T15:12:46;3.40;;;1.80;;
68050;SDS011;54839;51.364;7.246;2023-04-03T15:15:13;3.77;;;1.40;;
68050;SDS011;54839;51.364;7.246;2023-04-03T15:17:39;3.33;;;1.60;;
68050;SDS011;54839;51.364;7.246;2023-04-03T15:20:11;2.33;;;1.37;;
68050;SDS011;54839;51.364;7.246;2023-04-03T15:22:42;5.10;;;2.17;;
68050;SDS011;54839;51.364;7.246;2023-04-03T15:25:08;4.20;;;1.67;;
68050;SDS011;54839;51.364;7.246;2023-04-03T15:27:34;1.93;;;1.57;;
68050;SDS011;54839;51.364;7.246;2023-04-03T15:30:00;2.83;;;1.33;;
68050;SDS011;54839;51.364;7.246;2023-04-03T15:32:25;3.97;;;2.07;;
68050;SDS011;54839;51.364;7.246;2023-04-03T15:34:51;4.97;;;1.80;;
68050;SDS011;54839;51.364;7.246;2023-04-03T15:37:16;4.57;;;1.60;;
68050;SDS011;54839;51.364;7.246;2023-04-03T15:39:42;3.77;;;2.13;;
68050;SDS011;54839;51.364;7.246;2023-04-03T15:42:07;2.60;;;1.80;;
68050;SDS011;54839;51.364;7.246;2023-04-03T15:44:34;2.00;;;1.63;;
68050;SDS011;54839;51.364;7.246;2023-04-03T15:47:00;3.53;;;1.97;;
68050;SDS011;54839;51.364;7.246;2023-04-03T15:49:26;2.67;;;1.63;;
68050;SDS011;54839;51.364;7.246;2023-04-03T15:51:52;3.13;;;1.70;;
68050;SDS011;54839;51.364;7.246;2023-04-03T15:54:18;3.37;;;1.70;;
68050;SDS011;54839;51.364;7.246;2023-04-03T15:56:46;4.50;;;1.60;;
68050;SDS011;54839;51.364;7.246;2023-04-03T15:59:11;3.20;;;1.70;;
68050;SDS011;54839;51.364;7.246;2023-04-03T16:01:37;4.43;;;2.10;;
68050;SDS011;54839;51.364;7.246;2023-04-03T16:04:04;3.83;;;1.93;;
68050;SDS011;54839;51.364;7.246;2023-04-03T16:06:32;2.43;;;2.23;;
68050;SDS011;54839;51.364;7.246;2023-04-03T16:08:58;2.40;;;1.63;;
68050;SDS011;54839;51.364;7.246;2023-04-03T16:11:25;2.13;;;1.77;;
68050;SDS011;54839;51.364;7.246;2023-04-03T16:13:51;2.60;;;1.50;;
68050;SDS011;54839;51.364;7.246;2023-04-03T16:16:17;2.17;;;1.73;;
68050;SDS011;54839;51.364;7.246;2023-04-03T16:18:43;10.73;;;3.77;;
68050;SDS011;54839;51.364;7.246;2023-04-03T16:21:08;2.97;;;2.13;;
68050;SDS011;54839;51.364;7.246;2023-04-03T16:23:35;2.83;;;2.00;;
68050;SDS011;54839;51.364;7.246;2023-04-03T16:26:00;7.83;;;2.33;;
68050;SDS011;54839;51.364;7.246;2023-04-03T16:28:26;3.97;;;1.43;;